createdAt,value
2022-10-10T00:00:50.459Z,66.46
2022-10-10T00:03:18.769Z,67.32
2022-10-10T00:05:46.069Z,67.69
2022-10-10T00:08:13.455Z,67.91
2022-10-10T00:10:40.344Z,67.78
2022-10-10T00:13:07.154Z,67.98
2022-10-10T00:15:33.990Z,68.38
2022-10-10T00:18:00.824Z,68.04
2022-10-10T00:20:27.711Z,68.33
2022-10-10T00:22:55.097Z,68.40
2022-10-10T00:25:22.021Z,68.05
2022-10-10T00:27:48.948Z,68.92
2022-10-10T00:30:15.770Z,68.40
2022-10-10T00:32:42.759Z,68.85
2022-10-10T00:35:10.198Z,68.75
2022-10-10T00:37:37.035Z,68.69
2022-10-10T00:40:05.835Z,68.68
2022-10-10T00:42:32.655Z,68.91
2022-10-10T00:45:26.493Z,69.12
2022-10-10T00:47:58.962Z,69.13
2022-10-10T00:50:26.456Z,68.51
2022-10-10T00:52:53.745Z,69.29
2022-10-10T00:55:21.426Z,68.88
2022-10-10T00:57:50.205Z,68.88
2022-10-10T01:00:17.927Z,68.95
2022-10-10T01:02:44.798Z,69.16
2022-10-10T01:05:11.938Z,69.11
2022-10-10T01:07:39.466Z,69.43
2022-10-10T01:10:10.632Z,68.81
2022-10-10T01:13:02.883Z,69.24
2022-10-10T01:15:48.778Z,69.41
2022-10-10T01:18:34.217Z,69.60
2022-10-10T01:21:15.625Z,68.92
2022-10-10T01:24:01.190Z,69.34
2022-10-10T01:26:49.629Z,68.91
2022-10-10T01:29:33.256Z,68.92
2022-10-10T01:32:16.314Z,68.76
2022-10-10T01:35:14.953Z,68.34
2022-10-10T01:38:17.448Z,67.58
2022-10-10T01:41:16.958Z,67.65
2022-10-10T01:43:44.029Z,67.57
2022-10-10T01:46:17.450Z,67.66
2022-10-10T01:48:47.795Z,67.74
2022-10-10T01:51:17.699Z,67.38
2022-10-10T01:54:13.339Z,68.14
2022-10-10T01:56:55.296Z,67.77
2022-10-10T01:59:57.613Z,68.80
2022-10-10T02:02:51.074Z,69.21
2022-10-10T02:05:38.312Z,69.16
2022-10-10T02:08:19.926Z,69.43
2022-10-10T02:10:51.068Z,69.65
2022-10-10T02:13:19.778Z,70.03
2022-10-10T02:15:53.732Z,70.05
2022-10-10T02:18:23.374Z,69.71
2022-10-10T02:20:51.573Z,69.46
2022-10-10T02:23:21.521Z,68.63
2022-10-10T02:25:54.156Z,69.10
2022-10-10T02:28:26.119Z,68.66
2022-10-10T02:30:57.720Z,68.55
2022-10-10T02:33:42.340Z,68.97
2022-10-10T02:36:10.446Z,69.03
2022-10-10T02:38:38.371Z,68.93
2022-10-10T02:41:07.797Z,69.22
2022-10-10T02:43:35.291Z,69.72
2022-10-10T02:46:06.065Z,70.08
2022-10-10T02:48:32.922Z,70.25
2022-10-10T02:51:00.067Z,70.91
2022-10-10T02:53:26.903Z,70.63
2022-10-10T02:55:53.773Z,71.64
2022-10-10T02:58:20.650Z,71.62
2022-10-10T03:00:47.479Z,71.45
2022-10-10T03:03:14.398Z,71.64
2022-10-10T03:05:41.892Z,71.86
2022-10-10T03:08:11.569Z,71.74
2022-10-10T03:10:38.684Z,71.27
2022-10-10T03:13:05.509Z,71.73
2022-10-10T03:15:32.280Z,71.10
2022-10-10T03:17:59.179Z,71.25
2022-10-10T03:20:25.966Z,71.27
2022-10-10T03:22:53.000Z,71.51
2022-10-10T03:25:20.027Z,71.81
2022-10-10T03:27:47.044Z,71.44
2022-10-10T03:30:13.880Z,72.03
2022-10-10T03:32:40.673Z,71.65
2022-10-10T03:35:07.881Z,71.58
2022-10-10T03:37:34.739Z,72.19
2022-10-10T03:40:01.721Z,72.22
2022-10-10T03:42:28.513Z,72.35
2022-10-10T03:44:55.289Z,72.39
2022-10-10T03:47:22.149Z,72.88
2022-10-10T03:49:48.960Z,73.12
2022-10-10T03:52:15.723Z,72.92
2022-10-10T03:54:42.734Z,72.89
2022-10-10T03:57:09.532Z,72.50
2022-10-10T03:59:36.356Z,72.63
2022-10-10T04:02:03.593Z,72.36
2022-10-10T04:04:30.490Z,72.41
2022-10-10T04:06:57.298Z,72.61
2022-10-10T04:09:24.251Z,72.10
2022-10-10T04:11:51.030Z,72.69
2022-10-10T04:14:17.853Z,72.71
2022-10-10T04:16:44.660Z,72.45
2022-10-10T04:19:11.546Z,72.45
2022-10-10T04:21:38.311Z,72.49
2022-10-10T04:24:05.280Z,72.51
2022-10-10T04:26:32.133Z,72.79
2022-10-10T04:28:58.940Z,72.52
2022-10-10T04:31:25.882Z,72.74
2022-10-10T04:33:52.966Z,72.70
2022-10-10T04:36:19.726Z,73.37
2022-10-10T04:38:47.008Z,73.01
2022-10-10T04:41:13.988Z,73.17
2022-10-10T04:43:40.794Z,73.37
2022-10-10T04:46:07.874Z,73.61
2022-10-10T04:48:34.735Z,73.73
2022-10-10T04:51:01.563Z,73.66
2022-10-10T04:53:28.968Z,73.58
2022-10-10T04:55:55.852Z,73.73
2022-10-10T04:58:22.775Z,74.56
2022-10-10T05:00:54.089Z,74.70
2022-10-10T05:03:26.062Z,74.43
2022-10-10T05:05:54.326Z,74.54
2022-10-10T05:08:22.111Z,74.72
2022-10-10T05:10:54.786Z,74.56
2022-10-10T05:13:24.115Z,74.34
2022-10-10T05:15:52.323Z,74.96
2022-10-10T05:18:20.461Z,74.98
2022-10-10T05:20:48.166Z,75.09
2022-10-10T05:23:15.967Z,75.73
2022-10-10T05:25:50.783Z,75.54
2022-10-10T05:28:18.487Z,75.67
2022-10-10T05:30:45.444Z,75.76
2022-10-10T05:33:12.375Z,76.24
2022-10-10T05:35:39.221Z,76.09
2022-10-10T05:38:06.421Z,76.21
2022-10-10T05:40:33.365Z,76.18
2022-10-10T05:43:00.574Z,76.40
2022-10-10T05:45:27.645Z,76.88
2022-10-10T05:47:54.949Z,76.48
2022-10-10T05:50:38.612Z,76.91
2022-10-10T05:53:06.905Z,77.10
2022-10-10T05:55:33.976Z,76.19
2022-10-10T05:58:00.814Z,76.65
2022-10-10T06:00:27.728Z,76.43
2022-10-10T06:02:55.138Z,76.53
2022-10-10T06:05:22.310Z,76.53
2022-10-10T06:08:10.727Z,76.91
2022-10-10T06:10:37.981Z,77.10
2022-10-10T06:13:04.863Z,76.66
2022-10-10T06:18:31.762Z,76.68
2022-10-10T06:21:05.192Z,76.83
2022-10-10T06:23:33.831Z,76.94
2022-10-10T06:26:01.532Z,77.28
2022-10-10T06:28:28.772Z,77.41
2022-10-10T06:31:01.456Z,77.19
2022-10-10T06:33:29.176Z,76.45
2022-10-10T06:35:56.628Z,76.65
2022-10-10T06:38:23.774Z,77.06
2022-10-10T06:40:50.697Z,77.65
2022-10-10T06:43:18.388Z,78.32
2022-10-10T06:49:47.055Z,78.82
2022-10-10T06:52:15.092Z,78.89
2022-10-10T06:54:43.005Z,79.50
2022-10-10T06:57:10.466Z,79.17
2022-10-10T06:59:38.411Z,79.47
2022-10-10T07:02:05.508Z,79.63
2022-10-10T07:04:32.498Z,79.61
2022-10-10T07:06:59.477Z,79.44
2022-10-10T07:09:27.260Z,79.73
2022-10-10T07:11:54.288Z,79.88
2022-10-10T07:14:21.131Z,79.74
2022-10-10T07:16:48.155Z,80.18
2022-10-10T07:19:15.059Z,80.12
2022-10-10T07:21:42.508Z,80.39
2022-10-10T07:24:09.332Z,80.42
2022-10-10T07:26:38.311Z,80.49
2022-10-10T07:29:05.958Z,80.49
2022-10-10T07:31:33.987Z,80.47
2022-10-10T07:34:00.811Z,81.21
2022-10-10T07:36:27.661Z,81.13
2022-10-10T07:38:54.876Z,80.99
2022-10-10T07:41:22.529Z,81.49
2022-10-10T07:43:54.810Z,81.39
2022-10-10T07:46:22.087Z,81.93
2022-10-10T07:48:49.335Z,81.51
2022-10-10T07:51:16.729Z,81.57
2022-10-10T07:53:44.318Z,82.02
2022-10-10T07:56:11.732Z,81.80
2022-10-10T07:58:39.297Z,81.70
2022-10-10T08:01:08.862Z,82.13
2022-10-10T08:03:36.442Z,81.54
2022-10-10T08:06:05.562Z,82.05
2022-10-10T08:08:34.615Z,82.05
2022-10-10T08:11:08.420Z,82.17
2022-10-10T08:13:37.109Z,82.11
2022-10-10T08:16:05.614Z,82.62
2022-10-10T08:18:33.521Z,83.07
2022-10-10T08:21:06.471Z,82.32
2022-10-10T08:23:33.818Z,82.30
